WetterOnline ( http://www.wetteronline.de )

Wetter aktuell Westhofen

Aktuelles Wetter: Mannheim (100m)

6-stündlich | Neueste Meldungen
Ortszeit Temperatur Wetter
Mo, 01.05. 8:00 10.6° C bewölkt
Mo, 01.05. 2:00 13.8° C wolkenlos
So, 30.04. 20:00 17.5° C leicht bewölkt
So, 30.04. 14:00 18.8° C wolkenlos
Ortszeit Temperatur Wetter
Mo, 01.05. 8:00 10.6° C bewölkt
Mo, 01.05. 7:30 10.2° C bedeckt
Mo, 01.05. 7:00 9.8° C wolkig
Mo, 01.05. 6:30 8.1° C bedeckt
Mo, 01.05. 6:00 8.6° C bedeckt
Mo, 01.05. 5:30 8.2° C bedeckt
Ortszeit Relative Feuchte Sichtweite
Mo, 01.05. 8:00 71% 35 km
Mo, 01.05. 2:00 46% 65 km
So, 30.04. 20:00 32% 70 km
So, 30.04. 14:00 29% 21 km
Ortszeit Relative Feuchte Sichtweite
Mo, 01.05. 8:00 71% 35 km
Mo, 01.05. 7:30 70% 40 km
Mo, 01.05. 7:00 69% 35 km
Mo, 01.05. 6:30 75% 40 km
Mo, 01.05. 6:00 70% 45 km
Mo, 01.05. 5:30 73% 45 km
Ortszeit Niederschlagsmenge Niederschlagsart
Mo, 01.05. 8:00 0,0 l/m2 in 12 Std. -
Mo, 01.05. 2:00 0,0 l/m2 in 6 Std. -
So, 30.04. 20:00 0,0 l/m2 in 12 Std. -
So, 30.04. 14:00 0,0 l/m2 in 6 Std. -
Ortszeit Niederschlagsmenge Niederschlagsart
Mo, 01.05. 8:00 0,0 l/m2 in 1 Std. -
Mo, 01.05. 7:30 keine Meldung -
Mo, 01.05. 7:00 0,0 l/m2 in 1 Std. -
Mo, 01.05. 6:30 keine Meldung -
Mo, 01.05. 6:00 0,0 l/m2 in 1 Std. -
Mo, 01.05. 5:30 keine Meldung -
Ortszeit Stärke Spitze Richtung
km/h Bft. km/h Grad Sektor
Mo, 01.05. 8:00 2 1 24 160° S
Mo, 01.05. 2:00 17 3 35 100° O
So, 30.04. 20:00 19 3 50 100° O
So, 30.04. 14:00 22 4 48 130° SO
Ortszeit Stärke Spitze Richtung
km/h Bft. km/h Grad Sektor
Mo, 01.05. 8:00 2 1 11 160° S
Mo, 01.05. 7:30 9 2 11 160° S
Mo, 01.05. 7:00 6 1 11 200° S
Mo, 01.05. 6:30 7 2 11 170° S
Mo, 01.05. 6:00 7 2 11 130° SO
Mo, 01.05. 5:30 4 1 7 190° S
Ortszeit Untergrenze Bedeckung Gattung
total tief tief mittel hoch
Mo, 01.05. 8:00 1110 m 7/8 7/8 - - -
Mo, 01.05. 2:00 - 0/8 0/8 - - -
So, 30.04. 20:00 4500 m 2/8 2/8 - - -
So, 30.04. 14:00 - 0/8 0/8 - - -
Ortszeit Bedeckungsgrad in Achtel und Wolkenuntergrenze
Mo, 01.05. 8:00 7(1110m)
Mo, 01.05. 7:30 8(1260m) 8(1500m)
Mo, 01.05. 7:00 2(1320m) 5(1500m) 7(3900m)
Mo, 01.05. 6:30 7(3900m) 8(4800m)
Mo, 01.05. 6:00 5(3900m) 8(5100m) 8(5700m)
Mo, 01.05. 5:30 8(3600m)
Ortszeit Luftdruck NN (hPa) Tendenz (hPa in 3 Std.)
Mo, 01.05. 8:00 1009 + 2,0
Mo, 01.05. 2:00 1006 - 0,6
So, 30.04. 20:00 1007 - 1,9
So, 30.04. 14:00 1011 - 2,5
Ortszeit Luftdruck NN (hPa) Tendenz (hPa in 3 Std.)
Mo, 01.05. 8:00 1009 + 2,0
Mo, 01.05. 7:30 1009 + 1,7
Mo, 01.05. 7:00 1008 + 1,7
Mo, 01.05. 6:30 1008 + 1,7
Mo, 01.05. 6:00 1008 + 1,7
Mo, 01.05. 5:30 1008 + 1,2
Ortszeit Schneehöhe (cm)
Mo, 01.05. 8:00 -
Mo, 01.05. 2:00 -
So, 30.04. 20:00 -
So, 30.04. 14:00 -
Ortszeit Schneehöhe (cm)
Mo, 01.05. 8:00 -
Mo, 01.05. 7:30 -
Mo, 01.05. 7:00 -
Mo, 01.05. 6:30 -
Mo, 01.05. 6:00 -
Mo, 01.05. 5:30 -
Link zu dieser Seite / Seite empfehlen

Das Wetter in ...